EW9119 Weather Reports


Display with metric or nautical units.
time (UTC)temp
F
wind
direction
speed
MPH
gust
MPH
rain 1hr
in
rain 24hr
in
rain mn
in
humidity
%
barometer
mb
20230203070103 42 294 0.0 0.0 0.00 0.28 0.00 62 1015.6
20230203064559 42 290 0.0 4.0 0.00 0.28 0.00 65 1015.8
20230203063053 42 304 0.0 3.0 0.00 0.28 0.00 77 1015.7
20230203061549 42 296 0.0 6.0 0.00 0.28 0.00 88 1015.7
20230203060044 42 310 0.0 0.0 0.00 0.28 0.00 94 1015.7
20230203054549 42 310 0.0 0.0 0.00 0.28 0.00 95 1016.0
20230203053039 42 298 0.0 1.0 0.00 0.28 0.00 96 1016.1
20230203051546 42 309 0.0 0.0 0.00 0.28 0.00 97 1016.1
20230203050036 42 309 0.0 0.0 0.00 0.28 0.00 97 1016.0
20230203044537 42 309 0.0 0.0 0.00 0.28 0.28 96 1016.0
20230203043033 42 309 0.0 0.0 0.00 0.28 0.28 96 1016.0
20230203041535 42 309 0.0 0.0 0.00 0.28 0.28 96 1016.0
20230203040031 42 309 0.0 0.0 0.00 0.28 0.28 96 1016.2
20230203034530 43 309 0.0 0.0 0.00 0.28 0.28 96 1016.3
20230203033028 43 309 0.0 0.0 0.00 0.28 0.28 96 1016.5
20230203031528 43 232 0.0 0.0 0.00 0.28 0.28 96 1016.9
20230203030028 43 229 0.0 0.0 0.00 0.28 0.28 96 1016.7
20230203024527 43 307 0.0 0.0 0.00 0.28 0.28 96 1016.9
20230203023039 43 240 0.0 0.0 0.00 0.28 0.28 96 1016.8
20230203021541 43 240 0.0 0.0 0.00 0.28 0.28 96 1016.7
20230203020038 43 240 0.0 0.0 0.00 0.28 0.28 96 1016.6
20230203014524 42 240 0.0 0.0 0.00 0.28 0.28 96 1016.8
20230203013023 42 240 0.0 0.0 0.00 0.28 0.28 96 1017.2
20230203011523 42 240 0.0 0.0 0.00 0.28 0.28 96 1017.3
20230203010030 42 240 0.0 0.0 0.00 0.28 0.28 96 1017.0
20230203004530 42 240 0.0 0.0 0.00 0.28 0.28 96 1017.5
20230203003022 42 240 0.0 0.0 0.00 0.28 0.28 96 1017.8
20230203001519 42 274 0.0 0.0 0.00 0.28 0.28 96 1017.8
20230203000019 42 309 0.0 0.0 0.00 0.28 0.28 96 1018.2
20230202234519 42 279 0.0 0.0 0.00 0.28 0.28 96 1018.4
20230202233018 42 94 0.0 0.0 0.00 0.28 0.28 96 1018.1
20230202231517 42 124 0.0 0.0 0.00 0.28 0.28 96 1017.7
20230202230017 42 123 0.0 0.0 0.00 0.28 0.28 95 1017.3
20230202224520 42 123 0.0 0.0 0.00 0.28 0.28 95 1017.1
20230202223029 42 307 0.0 0.0 0.00 0.28 0.28 95 1017.5
20230202221521 42 307 0.0 0.0 0.00 0.28 0.28 95 1017.9
20230202220015 42 296 0.0 0.0 0.00 0.28 0.28 95 1017.8
20230202214515 42 296 0.0 0.0 0.00 0.28 0.28 95 1017.5
20230202213013 42 296 0.0 0.0 0.00 0.28 0.28 95 1017.2
20230202211513 42 296 0.0 0.0 0.00 0.28 0.28 95 1016.9
20230202210020 42 296 0.0 0.0 0.00 0.28 0.28 95 1017.2
20230202204510 43 296 0.0 0.0 0.00 0.28 0.28 95 1017.7
20230202203009 43 296 0.0 0.0 0.00 0.28 0.28 95 1017.9
20230202201511 43 296 0.0 0.0 0.00 0.28 0.28 95 1018.5
20230202200006 43 296 0.0 0.0 0.00 0.28 0.28 95 1018.4
20230202194504 43 296 0.0 0.0 0.00 0.28 0.28 95 1018.3
20230202193002 42 295 0.0 0.0 0.00 0.28 0.28 95 1018.3
20230202191600 42 295 0.0 0.0 0.00 0.28 0.28 95 1019.0
20230202190058 42 294 0.0 0.0 0.00 0.28 0.28 95 1019.2
20230202184557 42 295 0.0 0.0 0.00 0.28 0.28 95 1019.2
20230202183114 42 185 0.0 0.0 0.00 0.28 0.28 95 1019.6
20230202181556 41 176 0.0 0.0 0.00 0.28 0.28 95 1019.5
20230202180100 42 175 0.0 0.0 0.00 0.28 0.28 96 1020.1
20230202174548 41 242 0.0 0.0 0.00 0.28 0.28 95 1020.3
20230202173046 41 309 0.0 0.0 0.00 0.28 0.28 95 1020.5
20230202171550 41 360 0.0 0.0 0.00 0.28 0.28 96 1020.6
20230202170043 41 131 0.0 0.0 0.00 0.28 0.28 96 1020.8
20230202164556 41 135 0.0 0.0 0.00 0.28 0.28 96 1021.2
20230202163046 40 133 0.0 0.0 0.00 0.28 0.28 96 1021.6
20230202161539 40 133 0.0 0.0 0.01 0.28 0.28 97 1021.9
20230202160040 39 172 0.0 0.0 0.02 0.28 0.28 97 1022.0
20230202154539 39 139 0.0 0.0 0.02 0.28 0.28 97 1022.4
20230202153048 39 137 0.0 0.0 0.02 0.28 0.28 97 1022.6
20230202151540 38 130 0.0 5.0 0.02 0.28 0.28 97 1022.0
20230202150043 38 170 0.0 6.0 0.03 0.27 0.27 97 1022.1
20230202144532 38 163 0.0 0.0 0.05 0.27 0.27 97 1022.9
20230202143031 38 163 0.0 0.0 0.08 0.27 0.27 97 1023.0
20230202141532 37 163 0.0 0.0 0.08 0.25 0.25 97 1023.1
20230202140031 37 163 0.0 0.0 0.08 0.24 0.24 97 1023.0
20230202134530 37 164 0.0 0.0 0.07 0.23 0.22 97 1022.7
20230202133030 37 165 0.0 0.0 0.06 0.20 0.19 97 1023.0
20230202131530 37 123 0.0 0.0 0.04 0.18 0.17 97 1023.3
20230202130029 37 123 0.0 0.0 0.04 0.17 0.16 97 1023.2
20230202124528 37 123 0.0 0.0 0.03 0.16 0.15 97 1023.0
20230202123028 37 123 0.0 0.0 0.01 0.14 0.13 97 1023.0
20230202121527 37 124 0.0 0.0 0.01 0.14 0.13 97 1021.6
20230202120032 37 58 0.0 0.0 0.00 0.13 0.12 97 1021.7
20230202114542 37 97 0.0 0.0 0.01 0.13 0.12 97 1021.7
20230202113033 37 45 0.0 0.0 0.01 0.13 0.12 97 1022.0
20230202111526 37 158 0.0 0.0 0.01 0.13 0.12 97 1022.2
20230202110022 37 185 0.0 0.0 0.03 0.13 0.12 97 1022.7
20230202104520 37 186 0.0 0.0 0.04 0.13 0.11 97 1023.0
20230202103021 37 186 0.0 0.0 0.04 0.13 0.11 97 1023.3
20230202101521 37 186 0.0 0.0 0.05 0.13 0.11 97 1023.2
20230202100019 37 113 0.0 0.0 0.03 0.11 0.09 97 1023.3
20230202094520 37 113 0.0 0.0 0.02 0.13 0.07 97 1023.3
20230202093017 37 113 0.0 0.0 0.03 0.13 0.07 97 1022.7
20230202091518 37 113 0.0 0.0 0.03 0.12 0.06 97 1022.0
20230202090016 37 113 0.0 0.0 0.04 0.12 0.06 97 1022.1
20230202084526 37 113 0.0 0.0 0.04 0.15 0.05 96 1022.3
20230202083013 38 113 0.0 0.0 0.03 0.14 0.04 96 1022.7
20230202081511 38 113 0.0 0.0 0.02 0.13 0.03 96 1023.2
20230202080011 38 113 0.0 0.0 0.02 0.12 0.02 96 1022.8
20230202074508 38 113 0.0 0.0 0.01 0.15 0.01 96 1023.5
20230202073019 38 113 0.0 0.0 0.01 0.15 0.01 96 1023.3
20230202071505 38 113 0.0 0.0 0.01 0.15 0.01 96 1023.4